Time;durP1;ratioP1;P1;durP2;ratioP2;P2;SDS_P1;SDS_P2;PMS_P1;PMS_P2;Temp;Humidity;BMP_temperature;BMP_pressure;BME280_temperature;BME280_humidity;BME280_pressure;Samples;Min_cycle;Max_cycle;Signal;HPM_P1;HPM_P2
2023/04/22 00:02:23;;;;;;;14.93;9.90;;;;;;;-145.18;100.00;46664.31;4994761;28;20714;-68
2023/04/22 00:04:49;;;;;;;15.33;8.10;;;;;;;-145.18;100.00;46668.22;5011730;28;20033;-68
2023/04/22 00:07:14;;;;;;;8.53;5.37;;;;;;;-145.18;100.00;46666.25;5000577;28;20069;-68
2023/04/22 00:09:40;;;;;;;7.03;4.83;;;;;;;-145.18;100.00;46668.22;4992974;28;20041;-68
2023/04/22 00:12:07;;;;;;;6.00;4.30;;;;;;;-145.18;100.00;46662.34;4992545;28;20403;-68
2023/04/22 00:14:32;;;;;;;8.27;5.10;;;;;;;-145.18;100.00;46666.25;4992453;28;20339;-68
2023/04/22 00:16:57;;;;;;;6.70;4.80;;;;;;;-145.18;100.00;46664.31;4992676;28;20348;-68
2023/04/22 00:19:23;;;;;;;7.83;4.57;;;;;;;-145.18;100.00;46674.06;4992578;28;20045;-68
2023/04/22 00:21:49;;;;;;;11.17;7.07;;;;;;;-145.18;100.00;46670.16;4992458;28;20181;-68
2023/04/22 00:24:14;;;;;;;9.60;6.53;;;;;;;-145.18;100.00;46672.13;4992299;28;20088;-68
2023/04/22 00:26:39;;;;;;;12.83;8.07;;;;;;;-145.18;100.00;46666.25;4992236;28;20045;-68
2023/04/22 00:29:05;;;;;;;14.70;8.40;;;;;;;-145.18;100.00;46670.16;4992317;28;20133;-68
2023/04/22 00:31:30;;;;;;;16.93;4.93;;;;;;;-145.18;100.00;46674.06;5009316;28;20517;-68
2023/04/22 00:33:55;;;;;;;10.13;6.20;;;;;;;-145.18;100.00;46670.16;5011430;28;20053;-68
2023/04/22 00:36:21;;;;;;;11.47;6.67;;;;;;;-145.18;100.00;46668.22;5011327;28;20038;-68
2023/04/22 00:38:50;;;;;;;24.93;4.70;;;;;;;-145.18;100.00;46666.25;4994201;28;20044;-68
2023/04/22 00:41:16;;;;;;;5.57;4.27;;;;;;;-145.18;100.00;46666.25;5010206;28;20030;-68
2023/04/22 00:43:41;;;;;;;10.77;7.27;;;;;;;-145.18;100.00;46670.16;4992603;28;20276;-68
2023/04/22 00:46:07;;;;;;;12.33;7.60;;;;;;;-145.18;100.00;46668.22;4991690;28;20785;-68
2023/04/22 00:48:35;;;;;;;11.13;7.13;;;;;;;-145.18;100.00;46670.16;4991793;28;20081;-68
2023/04/22 00:51:01;;;;;;;4.77;3.57;;;;;;;-145.18;100.00;46666.25;4992076;28;20315;-68
2023/04/22 00:53:26;;;;;;;9.20;4.67;;;;;;;-145.18;100.00;46664.31;4991672;28;20279;-68
2023/04/22 00:55:52;;;;;;;6.57;4.17;;;;;;;-145.18;100.00;46664.31;4991883;28;20082;-68
2023/04/22 00:58:19;;;;;;;5.17;4.03;;;;;;;-145.18;100.00;46670.16;4991404;28;20031;-69
2023/04/22 01:00:45;;;;;;;5.90;3.90;;;;;;;-145.18;100.00;46668.22;4991703;28;20291;-69
2023/04/22 01:03:11;;;;;;;7.07;4.63;;;;;;;-145.18;100.00;46666.25;4991539;28;20788;-69
2023/04/22 01:05:36;;;;;;;11.57;6.73;;;;;;;-145.18;100.00;46668.22;5007158;28;20171;-69
2023/04/22 01:08:02;;;;;;;18.50;3.60;;;;;;;-145.18;100.00;46662.34;4991634;28;20360;-69
2023/04/22 01:10:28;;;;;;;11.97;4.87;;;;;;;-145.18;100.00;46660.41;4991474;28;20054;-68
2023/04/22 01:12:53;;;;;;;12.03;7.27;;;;;;;-145.18;100.00;46666.25;4991638;28;20062;-69
2023/04/22 01:15:19;;;;;;;8.63;5.70;;;;;;;-145.18;100.00;46668.22;4991546;28;20043;-69
2023/04/22 01:17:45;;;;;;;9.53;5.33;;;;;;;-145.18;100.00;46658.44;5011089;28;20034;-68
2023/04/22 01:20:11;;;;;;;13.50;4.77;;;;;;;-145.18;100.00;46666.25;5009336;28;20104;-69
2023/04/22 01:22:41;;;;;;;29.50;4.93;;;;;;;-145.18;100.00;46664.31;4989618;28;20034;-69
2023/04/22 01:25:08;;;;;;;5.70;3.33;;;;;;;-145.18;100.00;46666.25;4991484;28;20038;-69
2023/04/22 01:27:34;;;;;;;9.63;3.10;;;;;;;-145.18;100.00;46668.22;4991994;28;20355;-69
2023/04/22 01:29:59;;;;;;;4.37;2.90;;;;;;;-145.18;100.00;46674.06;4991453;28;20791;-69
2023/04/22 01:32:25;;;;;;;7.43;2.43;;;;;;;-145.18;100.00;46668.22;4990925;28;20271;-69
2023/04/22 01:34:51;;;;;;;8.23;3.20;;;;;;;-145.18;100.00;46668.22;4989623;28;20073;-69
2023/04/22 01:37:17;;;;;;;6.50;4.17;;;;;;;-145.18;100.00;46672.13;4992031;28;20042;-69
2023/04/22 01:39:42;;;;;;;4.90;3.30;;;;;;;-145.18;100.00;46672.13;4991245;28;20383;-69
2023/04/22 01:42:08;;;;;;;5.50;4.10;;;;;;;-145.18;100.00;46672.13;4991927;28;20422;-69
2023/04/22 01:44:33;;;;;;;5.03;4.03;;;;;;;-145.18;100.00;46676.03;5010135;28;20065;-69
2023/04/22 01:46:59;;;;;;;5.13;3.63;;;;;;;-145.18;100.00;46674.06;5010540;28;20053;-69
2023/04/22 01:49:24;;;;;;;24.97;3.60;;;;;;;-145.18;100.00;46677.97;5010530;28;20041;-68
2023/04/22 01:51:49;;;;;;;4.53;2.90;;;;;;;-145.18;100.00;46683.84;5010072;28;20045;-68
2023/04/22 01:54:15;;;;;;;19.00;2.80;;;;;;;-145.18;100.00;46676.03;5002310;28;20173;-69
2023/04/22 01:56:42;;;;;;;3.60;2.87;;;;;;;-145.18;100.00;46674.06;5009859;28;20036;-69
2023/04/22 01:59:08;;;;;;;4.30;2.57;;;;;;;-145.18;100.00;46677.97;5010531;28;20038;-69
2023/04/22 02:01:39;;;;;;;5.43;3.10;;;;;;;-145.18;100.00;46677.97;5250087;22;20332;-82
2023/04/22 02:04:04;;;;;;;5.60;3.40;;;;;;;-145.18;100.00;46679.94;5002264;23;20042;-69
2023/04/22 02:06:31;;;;;;;9.50;3.57;;;;;;;-145.18;100.00;46683.84;4999803;28;20276;-69
2023/04/22 02:08:56;;;;;;;16.00;4.40;;;;;;;-145.18;100.00;46679.94;4993052;28;20033;-69
2023/04/22 02:11:21;;;;;;;10.07;5.80;;;;;;;-145.18;100.00;46676.03;4990943;28;20276;-69
2023/04/22 02:13:47;;;;;;;15.27;8.17;;;;;;;-145.18;100.00;46672.13;5000616;28;20068;-69
2023/04/22 02:16:12;;;;;;;22.83;11.43;;;;;;;-145.18;100.00;46676.03;5010409;28;20037;-69
2023/04/22 02:18:37;;;;;;;13.17;8.40;;;;;;;-145.18;100.00;46674.06;5010387;28;20109;-69
2023/04/22 02:21:03;;;;;;;16.93;10.23;;;;;;;-145.18;100.00;46672.13;5010362;28;20026;-69
2023/04/22 02:23:28;;;;;;;17.60;10.53;;;;;;;-145.18;100.00;46668.22;5010053;28;20034;-69
2023/04/22 02:25:54;;;;;;;12.53;8.07;;;;;;;-145.18;100.00;46660.41;5006329;28;20050;-70
2023/04/22 02:28:20;;;;;;;15.57;9.83;;;;;;;-145.18;100.00;46668.22;4990963;28;20080;-69
2023/04/22 02:30:45;;;;;;;19.20;11.20;;;;;;;-145.18;100.00;46666.25;4998541;28;20284;-70
2023/04/22 02:33:11;;;;;;;18.17;11.27;;;;;;;-145.18;100.00;46666.25;4990144;28;20034;-69
2023/04/22 02:35:36;;;;;;;20.17;12.53;;;;;;;-145.18;100.00;46660.41;4990818;28;20034;-69
2023/04/22 02:38:02;;;;;;;21.83;13.40;;;;;;;-145.18;100.00;46662.34;4990476;28;20031;-69
2023/04/22 02:40:27;;;;;;;21.63;13.13;;;;;;;-145.18;100.00;46666.25;4990770;28;20121;-70
2023/04/22 02:42:52;;;;;;;22.93;13.30;;;;;;;-145.18;100.00;46666.25;4990255;28;20147;-69
2023/04/22 02:45:18;;;;;;;17.50;11.50;;;;;;;-145.18;100.00;46662.34;4990622;28;20038;-70
2023/04/22 02:47:43;;;;;;;17.10;10.07;;;;;;;-145.18;100.00;46658.44;4989411;28;20039;-70
2023/04/22 02:50:09;;;;;;;14.93;9.40;;;;;;;-145.18;100.00;46658.44;4990404;28;20045;-70
2023/04/22 02:52:34;;;;;;;16.57;9.77;;;;;;;-145.18;100.00;46658.44;4997802;28;20029;-69
2023/04/22 02:55:00;;;;;;;15.83;10.30;;;;;;;-145.18;100.00;46656.50;5009495;28;20044;-70
2023/04/22 02:57:26;;;;;;;15.67;9.87;;;;;;;-145.18;100.00;46658.44;5009963;28;20052;-70
2023/04/22 02:59:52;;;;;;;13.67;8.20;;;;;;;-145.18;100.00;46656.50;5010225;28;20478;-69
2023/04/22 03:02:17;;;;;;;13.53;8.33;;;;;;;-145.18;100.00;46660.41;5009641;28;20514;-70
2023/04/22 03:04:43;;;;;;;15.73;9.70;;;;;;;-145.18;100.00;46660.41;5010206;28;20330;-69
2023/04/22 03:07:09;;;;;;;14.03;9.50;;;;;;;-145.18;100.00;46662.34;4999773;28;20121;-69
2023/04/22 03:09:34;;;;;;;14.77;9.30;;;;;;;-145.18;100.00;46658.44;4994105;28;20121;-69
2023/04/22 03:11:59;;;;;;;14.03;9.00;;;;;;;-145.18;100.00;46662.34;4993580;28;20060;-69
2023/04/22 03:14:25;;;;;;;15.30;9.90;;;;;;;-145.18;100.00;46658.44;4994102;28;20128;-70
2023/04/22 03:16:50;;;;;;;13.73;9.17;;;;;;;-145.18;100.00;46660.41;5013239;28;20033;-70
2023/04/22 03:19:16;;;;;;;12.80;7.77;;;;;;;-145.18;100.00;46660.41;5013121;28;20127;-70
2023/04/22 03:21:41;;;;;;;13.77;8.93;;;;;;;-145.18;100.00;46662.34;4998330;28;20069;-70
2023/04/22 03:24:06;;;;;;;15.07;9.60;;;;;;;-145.18;100.00;46658.44;4992381;28;20042;-70
2023/04/22 03:26:32;;;;;;;15.20;9.70;;;;;;;-145.18;100.00;46662.34;4993809;28;20038;-70
2023/04/22 03:28:57;;;;;;;14.43;10.07;;;;;;;-145.18;100.00;46662.34;4993530;28;20164;-70
2023/04/22 03:31:22;;;;;;;11.43;8.43;;;;;;;-145.18;100.00;46662.34;5008983;28;20037;-70
2023/04/22 03:33:48;;;;;;;11.27;7.83;;;;;;;-145.18;100.00;46662.34;5012795;28;20041;-70
2023/04/22 03:36:13;;;;;;;12.80;8.13;;;;;;;-145.18;100.00;46662.34;5013269;28;20069;-70
2023/04/22 03:38:38;;;;;;;12.33;7.37;;;;;;;-145.18;100.00;46664.31;5013075;28;20123;-70
2023/04/22 03:41:04;;;;;;;12.30;7.73;;;;;;;-145.18;100.00;46666.25;5013086;28;20490;-70
2023/04/22 03:43:30;;;;;;;10.83;6.53;;;;;;;-145.18;100.00;46662.34;5012034;28;20038;-70
2023/04/22 03:45:55;;;;;;;15.53;10.10;;;;;;;-145.18;100.00;46662.34;5013121;28;20124;-70
2023/04/22 03:48:20;;;;;;;18.73;10.87;;;;;;;-145.18;100.00;46666.25;5012747;28;20033;-70
2023/04/22 03:50:46;;;;;;;15.47;10.27;;;;;;;-145.18;100.00;46660.41;5013186;28;20040;-70
2023/04/22 03:53:11;;;;;;;17.57;11.70;;;;;;;-145.18;100.00;46664.31;5012434;28;20042;-70
2023/04/22 03:55:36;;;;;;;14.87;10.30;;;;;;;-145.18;100.00;46666.25;5012561;28;20041;-70
2023/04/22 03:58:02;;;;;;;17.90;11.23;;;;;;;-145.18;100.00;46664.31;5012679;28;20034;-70
2023/04/22 04:00:27;;;;;;;15.63;10.73;;;;;;;-145.18;100.00;46666.25;5012958;28;20091;-70
2023/04/22 04:02:52;;;;;;;16.93;11.50;;;;;;;-145.18;100.00;46670.16;5010744;28;20393;-70
2023/04/22 04:05:18;;;;;;;20.13;12.50;;;;;;;-145.18;100.00;46668.22;5012519;28;20116;-70
2023/04/22 04:07:43;;;;;;;20.30;13.43;;;;;;;-145.18;100.00;46664.31;5012650;28;20034;-70
2023/04/22 04:10:10;;;;;;;17.63;12.23;;;;;;;-145.18;100.00;46664.31;5012565;28;20510;-70
2023/04/22 04:12:35;;;;;;;18.83;12.67;;;;;;;-145.18;100.00;46662.34;5011566;28;20600;-70
2023/04/22 04:15:00;;;;;;;22.37;13.80;;;;;;;-145.18;100.00;46666.25;4998405;28;20294;-70
2023/04/22 04:17:27;;;;;;;22.20;12.93;;;;;;;-145.18;100.00;46658.44;4994380;28;20541;-70
2023/04/22 04:19:53;;;;;;;14.97;10.23;;;;;;;-145.18;100.00;46660.41;4992187;28;20034;-70
2023/04/22 04:22:19;;;;;;;18.13;11.07;;;;;;;-145.18;100.00;46660.41;4992810;28;20280;-71
2023/04/22 04:24:46;;;;;;;15.83;11.07;;;;;;;-145.18;100.00;46664.31;4992637;28;20268;-70
2023/04/22 04:27:12;;;;;;;21.60;12.63;;;;;;;-145.18;100.00;46660.41;4992608;28;20117;-70
2023/04/22 04:29:38;;;;;;;17.27;11.60;;;;;;;-145.18;100.00;46656.50;4992634;28;20322;-70
2023/04/22 04:32:04;;;;;;;15.07;9.73;;;;;;;-145.18;100.00;46666.25;5007404;28;20815;-70
2023/04/22 04:34:31;;;;;;;13.60;9.27;;;;;;;-145.18;100.00;46660.41;5011362;28;20045;-70
2023/04/22 04:36:56;;;;;;;16.30;10.37;;;;;;;-145.18;100.00;46666.25;5012021;28;20105;-70
2023/04/22 04:39:22;;;;;;;16.53;10.23;;;;;;;-145.18;100.00;46666.25;5012095;28;20350;-70
2023/04/22 04:41:48;;;;;;;23.23;13.33;;;;;;;-145.18;100.00;46656.50;5012012;28;20037;-70
2023/04/22 04:44:14;;;;;;;23.87;14.87;;;;;;;-145.18;100.00;46672.13;5000112;28;20292;-70
2023/04/22 04:46:40;;;;;;;21.93;13.07;;;;;;;-145.18;100.00;46662.34;5000585;28;20057;-70
2023/04/22 04:49:08;;;;;;;19.07;11.90;;;;;;;-145.18;100.00;46664.31;5000940;28;20752;-70
2023/04/22 04:51:34;;;;;;;21.43;13.63;;;;;;;-145.18;100.00;46662.34;5001245;28;20130;-70
2023/04/22 04:53:59;;;;;;;20.47;13.10;;;;;;;-145.18;100.00;46664.31;5001612;28;20334;-70
2023/04/22 04:56:25;;;;;;;20.10;12.90;;;;;;;-145.18;100.00;46662.34;5011524;28;20279;-70
2023/04/22 04:58:50;;;;;;;18.20;11.50;;;;;;;-145.18;100.00;46662.34;4995505;28;20109;-70
2023/04/22 05:01:15;;;;;;;19.20;11.77;;;;;;;-145.18;100.00;46662.34;4991978;28;20122;-70
2023/04/22 05:03:41;;;;;;;21.10;13.20;;;;;;;-145.18;100.00;46662.34;4995346;28;20081;-70
2023/04/22 05:06:06;;;;;;;25.33;14.13;;;;;;;-145.18;100.00;46660.41;5005687;28;20061;-71
2023/04/22 05:08:32;;;;;;;23.07;13.97;;;;;;;-145.18;100.00;46668.22;5011335;28;20105;-70
2023/04/22 05:10:57;;;;;;;25.20;15.33;;;;;;;-145.18;100.00;46662.34;5009462;28;20037;-70
2023/04/22 05:13:23;;;;;;;26.60;16.57;;;;;;;-145.18;100.00;46662.34;5006353;28;20076;-70
2023/04/22 05:15:48;;;;;;;25.67;16.30;;;;;;;-145.18;100.00;46664.31;5011353;28;20487;-71
2023/04/22 05:18:14;;;;;;;23.80;15.50;;;;;;;-145.18;100.00;46664.31;5007223;28;20029;-71
2023/04/22 05:20:39;;;;;;;18.47;11.87;;;;;;;-145.18;100.00;46662.34;5010732;28;20026;-70
2023/04/22 05:23:04;;;;;;;17.53;11.80;;;;;;;-145.18;100.00;46658.44;5010639;28;20029;-70
2023/04/22 05:25:30;;;;;;;16.83;10.93;;;;;;;-145.18;100.00;46662.34;5008249;28;20565;-70
2023/04/22 05:27:55;;;;;;;14.53;10.37;;;;;;;-145.18;100.00;46660.41;5007087;28;20402;-70
2023/04/22 05:30:21;;;;;;;18.57;11.00;;;;;;;-145.18;100.00;46664.31;5008059;28;20109;-71
2023/04/22 05:32:46;;;;;;;17.47;11.70;;;;;;;-145.18;100.00;46654.53;5008872;28;20033;-70
2023/04/22 05:35:11;;;;;;;18.47;11.63;;;;;;;-145.18;100.00;46666.25;5000947;28;20044;-70
2023/04/22 05:37:37;;;;;;;21.83;13.37;;;;;;;-145.18;100.00;46668.22;5010691;28;20029;-71
2023/04/22 05:40:03;;;;;;;22.57;14.10;;;;;;;-145.18;100.00;46668.22;4991386;28;20125;-70
2023/04/22 05:42:28;;;;;;;29.07;14.87;;;;;;;-145.18;100.00;46662.34;5008607;28;20486;-70
2023/04/22 05:44:54;;;;;;;22.40;15.13;;;;;;;-145.18;100.00;46662.34;5010443;28;20041;-70
2023/04/22 05:47:19;;;;;;;24.60;15.40;;;;;;;-145.18;100.00;46656.50;5010947;28;20026;-71
2023/04/22 05:49:45;;;;;;;27.93;17.97;;;;;;;-145.18;100.00;46664.31;5008585;28;20438;-70
2023/04/22 05:52:10;;;;;;;31.23;18.83;;;;;;;-145.18;100.00;46656.50;4998581;28;20116;-70
2023/04/22 05:54:36;;;;;;;29.73;18.03;;;;;;;-145.18;100.00;46656.50;4994133;28;20069;-71
2023/04/22 05:57:01;;;;;;;28.03;17.43;;;;;;;-145.18;100.00;46660.41;5010493;28;20040;-70
2023/04/22 05:59:27;;;;;;;31.17;18.60;;;;;;;-145.18;100.00;46658.44;5009322;28;20038;-70
2023/04/22 06:01:52;;;;;;;32.67;19.80;;;;;;;-145.18;100.00;46658.44;5010341;28;20099;-70
2023/04/22 06:04:18;;;;;;;30.30;19.53;;;;;;;-145.18;100.00;46656.50;5010223;28;20096;-70
2023/04/22 06:06:43;;;;;;;33.40;20.40;;;;;;;-145.18;100.00;46654.53;5009904;28;20597;-70
2023/04/22 06:09:09;;;;;;;28.43;19.17;;;;;;;-145.18;100.00;46656.50;5009877;28;20363;-70
2023/04/22 06:11:34;;;;;;;29.33;18.77;;;;;;;-145.18;100.00;46654.53;5010756;28;20034;-70
2023/04/22 06:14:00;;;;;;;30.77;20.30;;;;;;;-145.18;100.00;46650.63;5003199;28;20042;-70
2023/04/22 06:16:26;;;;;;;31.00;19.43;;;;;;;-145.18;100.00;46656.50;4992479;28;20039;-70
2023/04/22 06:18:51;;;;;;;28.80;19.00;;;;;;;-145.18;100.00;46654.53;5000741;28;20846;-70
2023/04/22 06:21:17;;;;;;;31.10;19.20;;;;;;;-145.18;100.00;46654.53;4998228;28;20486;-70
2023/04/22 06:23:42;;;;;;;30.37;18.00;;;;;;;-145.18;100.00;46654.53;4998098;28;20088;-71
2023/04/22 06:26:07;;;;;;;29.90;19.63;;;;;;;-145.18;100.00;46650.63;4994867;28;20046;-70
2023/04/22 06:28:33;;;;;;;27.20;18.63;;;;;;;-145.18;100.00;46648.69;4992404;28;20048;-71
2023/04/22 06:30:58;;;;;;;28.53;19.37;;;;;;;-145.18;100.00;46654.53;5010195;28;20038;-71
2023/04/22 06:33:23;;;;;;;27.83;18.53;;;;;;;-145.18;100.00;46654.53;4991681;28;20136;-71
2023/04/22 06:35:49;;;;;;;28.60;17.60;;;;;;;-145.18;100.00;46654.53;5010275;28;20038;-71
2023/04/22 06:38:14;;;;;;;26.40;17.63;;;;;;;-145.18;100.00;46656.50;5010024;28;20033;-70
2023/04/22 06:40:40;;;;;;;25.70;17.03;;;;;;;-145.18;100.00;46656.50;5010310;28;20041;-70
2023/04/22 06:43:05;;;;;;;24.73;17.10;;;;;;;-145.18;100.00;46656.50;5010284;28;20038;-71
2023/04/22 06:45:30;;;;;;;26.03;16.60;;;;;;;-145.18;100.00;46648.69;5011503;28;20406;-70
2023/04/22 06:47:56;;;;;;;25.17;17.50;;;;;;;-145.18;100.00;46656.50;4993839;28;20098;-70
2023/04/22 06:50:21;;;;;;;23.67;16.53;;;;;;;-145.18;100.00;46656.50;5009772;28;20049;-70
2023/04/22 06:52:46;;;;;;;24.57;17.27;;;;;;;-145.18;100.00;46658.44;5001867;28;20038;-70
2023/04/22 06:55:12;;;;;;;23.07;16.47;;;;;;;-145.18;100.00;46656.50;5007702;28;20046;-71
2023/04/22 06:57:37;;;;;;;24.90;17.27;;;;;;;-145.18;100.00;46652.59;5013836;28;20113;-71
2023/04/22 07:00:09;;;;;;;23.57;16.47;;;;;;;-145.18;100.00;46654.53;5008457;28;20029;-71
2023/04/22 07:02:35;;;;;;;23.13;16.23;;;;;;;-145.18;100.00;46664.31;5013289;28;20092;-71
2023/04/22 07:05:01;;;;;;;22.63;16.50;;;;;;;-145.18;100.00;46654.53;5008071;28;20287;-71
2023/04/22 07:07:26;;;;;;;21.53;14.63;;;;;;;-145.18;100.00;46660.41;5012473;28;20041;-71
2023/04/22 07:09:52;;;;;;;23.40;17.07;;;;;;;-145.18;100.00;46668.22;5012974;28;20121;-71
2023/04/22 07:12:17;;;;;;;23.80;16.90;;;;;;;-145.18;100.00;46664.31;5012680;28;20042;-71
2023/04/22 07:14:44;;;;;;;23.93;15.93;;;;;;;-145.18;100.00;46666.25;5012747;28;20046;-71
2023/04/22 07:17:10;;;;;;;23.90;15.97;;;;;;;-145.18;100.00;46668.22;5012902;28;20041;-71
2023/04/22 07:19:36;;;;;;;24.37;17.17;;;;;;;-145.18;100.00;46668.22;5013153;28;20037;-71
2023/04/22 07:22:02;;;;;;;25.50;16.87;;;;;;;-145.18;100.00;46668.22;5013280;28;20123;-72
2023/04/22 07:24:28;;;;;;;25.30;16.33;;;;;;;-145.18;100.00;46670.16;5012708;28;20046;-71
2023/04/22 07:26:53;;;;;;;24.83;16.60;;;;;;;-145.18;100.00;46676.03;5012225;28;20445;-71
2023/04/22 07:29:18;;;;;;;22.63;16.07;;;;;;;-145.18;100.00;46677.97;5012448;28;20038;-72
2023/04/22 07:31:44;;;;;;;21.37;15.10;;;;;;;-145.18;100.00;46672.13;5013273;28;20499;-71
2023/04/22 07:34:09;;;;;;;22.77;15.77;;;;;;;-145.18;100.00;46677.97;5012256;28;20129;-71
2023/04/22 07:36:35;;;;;;;21.90;15.50;;;;;;;-145.18;100.00;46676.03;4997889;28;20038;-71
2023/04/22 07:39:01;;;;;;;23.10;14.23;;;;;;;-145.18;100.00;46677.97;5005414;28;20037;-72
2023/04/22 07:41:26;;;;;;;19.83;13.93;;;;;;;-145.18;100.00;46679.94;5005224;28;20062;-72
2023/04/22 07:43:52;;;;;;;16.83;12.57;;;;;;;-145.18;100.00;46679.94;4995823;28;20570;-72
2023/04/22 07:46:17;;;;;;;17.47;12.10;;;;;;;-145.18;100.00;46676.03;5012771;28;20046;-72
2023/04/22 07:48:42;;;;;;;19.67;13.60;;;;;;;-145.18;100.00;46672.13;5011895;28;20073;-72
2023/04/22 07:51:08;;;;;;;18.73;13.50;;;;;;;-145.18;100.00;46666.25;5012207;28;20046;-72
2023/04/22 07:53:33;;;;;;;19.20;13.00;;;;;;;-145.18;100.00;46658.44;5012558;28;20109;-72
2023/04/22 07:56:00;;;;;;;17.80;12.37;;;;;;;-145.18;100.00;46644.78;5011441;28;20080;-72
2023/04/22 07:58:26;;;;;;;18.00;11.53;;;;;;;-145.18;100.00;46613.50;4992695;28;20483;-72
2023/04/22 08:00:51;;;;;;;14.53;9.93;;;;;;;-145.18;100.00;46576.41;5008780;28;20038;-73
2023/04/22 08:03:17;;;;;;;13.27;10.07;;;;;;;-145.18;100.00;46551.00;5011982;28;20137;-72
2023/04/22 08:05:42;;;;;;;13.03;9.37;;;;;;;-145.18;100.00;46560.78;5012567;28;20041;-72
2023/04/22 08:08:07;;;;;;;12.57;8.37;;;;;;;-145.18;100.00;46564.69;5009757;28;20038;-73
2023/04/22 08:10:33;;;;;;;10.50;7.37;;;;;;;-145.18;100.00;46574.44;5007683;28;20080;-72
2023/04/22 08:12:58;;;;;;;10.23;8.20;;;;;;;-145.18;100.00;46570.53;5016301;28;20041;-73
2023/04/22 08:15:24;;;;;;;13.40;8.77;;;;;;;-145.18;100.00;46586.16;5016761;28;20510;-72
2023/04/22 08:17:50;;;;;;;12.10;8.43;;;;;;;-145.18;100.00;46586.16;5021301;28;20086;-72
2023/04/22 08:20:16;;;;;;;11.57;7.83;;;;;;;-145.18;100.00;46582.25;5020690;28;20033;-72
2023/04/22 08:22:42;;;;;;;12.07;8.10;;;;;;;-145.18;100.00;46580.31;5017400;28;20042;-72
2023/04/22 08:25:08;;;;;;;14.07;8.50;;;;;;;-145.18;100.00;46586.16;5009431;28;20041;-73
2023/04/22 08:27:34;;;;;;;11.20;7.97;;;;;;;-145.18;100.00;46584.22;5011645;28;20079;-72
2023/04/22 08:29:59;;;;;;;11.37;8.17;;;;;;;-145.18;100.00;46584.22;5010716;28;20041;-72
2023/04/22 08:32:25;;;;;;;12.03;8.43;;;;;;;-145.18;100.00;46586.16;5012271;28;20106;-72
2023/04/22 08:34:50;;;;;;;9.43;6.83;;;;;;;-145.18;100.00;46599.84;5010630;28;20037;-72
2023/04/22 08:37:16;;;;;;;10.30;7.10;;;;;;;-145.18;100.00;46605.69;5011304;28;20453;-72
2023/04/22 08:39:41;;;;;;;8.87;6.83;;;;;;;-145.18;100.00;46609.59;5010628;28;20030;-72
2023/04/22 08:42:08;;;;;;;9.87;7.43;;;;;;;-145.18;100.00;46623.28;5011705;28;20301;-72
2023/04/22 08:44:34;;;;;;;10.57;7.73;;;;;;;-145.18;100.00;46619.38;4995487;28;20145;-72
2023/04/22 08:47:00;;;;;;;12.47;7.33;;;;;;;-145.18;100.00;46621.31;5009570;28;20506;-72
2023/04/22 08:49:27;;;;;;;10.87;7.63;;;;;;;-145.18;100.00;46621.31;5009643;28;20026;-71
2023/04/22 08:51:54;;;;;;;12.13;8.50;;;;;;;-145.18;100.00;46621.31;5011161;28;20030;-71
2023/04/22 08:54:20;;;;;;;10.07;7.73;;;;;;;-145.18;100.00;46621.31;5010973;28;20099;-71
2023/04/22 08:56:48;;;;;;;11.47;8.17;;;;;;;-145.18;100.00;46601.78;5011338;28;20030;-71
2023/04/22 08:59:15;;;;;;;10.97;7.23;;;;;;;-145.18;100.00;46623.28;5010025;28;20040;-71
2023/04/22 09:01:41;;;;;;;10.03;7.47;;;;;;;-145.18;100.00;46623.28;5011040;28;20038;-71
2023/04/22 09:04:08;;;;;;;10.27;7.60;;;;;;;-145.18;100.00;46629.13;5001863;28;20061;-71
2023/04/22 09:06:34;;;;;;;10.97;8.03;;;;;;;-145.18;100.00;46636.94;5009668;28;20100;-71
2023/04/22 09:09:00;;;;;;;11.80;8.77;;;;;;;-145.18;100.00;46633.06;5009989;28;20049;-71
2023/04/22 09:11:29;;;;;;;12.63;8.60;;;;;;;-145.18;100.00;46640.88;5010970;28;20410;-71
2023/04/22 09:13:55;;;;;;;12.63;8.87;;;;;;;-145.18;100.00;46619.38;5011089;28;20065;-70
2023/04/22 09:16:20;;;;;;;13.67;8.77;;;;;;;-145.18;100.00;46621.31;5009304;28;20082;-71
2023/04/22 09:18:45;;;;;;;12.80;9.17;;;;;;;-145.18;100.00;46601.78;4999013;28;20042;-71
2023/04/22 09:21:11;;;;;;;12.03;9.00;;;;;;;-145.18;100.00;46609.59;5010868;28;20069;-71
2023/04/22 09:23:48;;;;;;;12.77;8.20;;;;;;;-145.18;100.00;46590.06;5011204;28;20065;-71
2023/04/22 09:26:14;;;;;;;10.00;7.73;;;;;;;-145.18;100.00;46613.50;5000202;28;20030;-71
2023/04/22 09:28:48;;;;;;;11.63;8.93;;;;;;;-145.18;100.00;46593.97;4990943;28;20553;-70
2023/04/22 09:31:13;;;;;;;12.50;8.20;;;;;;;-145.18;100.00;46609.59;5005337;28;20065;-71
2023/04/22 09:33:39;;;;;;;11.20;9.13;;;;;;;-145.18;100.00;46613.50;5010848;28;20081;-71
2023/04/22 09:36:08;;;;;;;11.57;8.70;;;;;;;-145.18;100.00;46656.50;5009143;28;20397;-71
2023/04/22 09:38:33;;;;;;;11.27;8.70;;;;;;;-145.18;100.00;46664.31;5004972;28;20030;-70
2023/04/22 09:40:58;;;;;;;11.53;8.47;;;;;;;-145.18;100.00;46662.34;5001748;28;20026;-70
2023/04/22 09:43:24;;;;;;;11.70;8.53;;;;;;;-145.18;100.00;46683.84;5010613;28;20029;-70
2023/04/22 09:45:49;;;;;;;14.77;8.77;;;;;;;-145.18;100.00;46668.22;5010479;28;20034;-70
2023/04/22 09:48:17;;;;;;;11.83;8.00;;;;;;;-145.18;100.00;46699.47;5010443;28;20041;-71
2023/04/22 09:50:45;;;;;;;13.83;8.03;;;;;;;-145.18;100.00;46668.22;5010412;28;20124;-70
2023/04/22 09:53:13;;;;;;;10.53;8.37;;;;;;;-145.18;100.00;46677.97;5002297;28;20112;-70
2023/04/22 09:55:44;;;;;;;10.87;8.43;;;;;;;-145.18;100.00;46666.25;4998297;28;20610;-70
2023/04/22 09:58:15;;;;;;;12.37;8.80;;;;;;;-145.18;100.00;46672.13;5010378;28;20514;-70
2023/04/22 10:00:50;;;;;;;10.80;7.63;;;;;;;-145.18;100.00;46674.06;5010342;28;20033;-71
2023/04/22 10:03:16;;;;;;;10.90;9.05;;;;;;;-145.18;100.00;46728.75;4992479;28;20046;-70
2023/04/22 10:05:44;;;;;;;10.63;8.10;;;;;;;-145.18;100.00;46847.91;4996859;28;20117;-70
2023/04/22 10:08:10;;;;;;;9.70;8.13;;;;;;;-145.18;100.00;46812.75;4990747;28;20035;-70
2023/04/22 10:10:36;;;;;;;10.37;8.50;;;;;;;-145.18;100.00;47105.78;4997376;28;20034;-70
2023/04/22 10:13:03;;;;;;;10.83;8.17;;;;;;;-145.18;100.00;46881.13;5009993;28;20033;-70
2023/04/22 10:16:04;;;;;;;11.27;8.40;;;;;;;-145.18;100.00;46816.66;5009924;28;20088;-70
2023/04/22 10:18:30;;;;;;;10.77;8.53;;;;;;;-145.18;100.00;46799.09;4987298;28;20105;-70
2023/04/22 10:20:56;;;;;;;10.33;8.43;;;;;;;-145.18;100.00;47080.38;4990609;28;20042;-70
2023/04/22 10:23:23;;;;;;;11.37;8.17;;;;;;;-145.18;100.00;46775.66;4990812;28;20030;-70
2023/04/22 10:25:52;;;;;;;10.33;8.40;;;;;;;-145.18;100.00;46771.75;5001872;28;20037;-69
2023/04/22 10:28:20;;;;;;;11.07;8.40;;;;;;;-145.18;100.00;46703.38;5008618;28;20033;-69
2023/04/22 10:30:45;;;;;;;13.83;9.00;;;;;;;-145.18;100.00;46701.41;5000203;28;20029;-70
2023/04/22 10:33:19;;;;;;;12.07;8.47;;;;;;;-145.18;100.00;46687.75;4992658;28;20582;-69
2023/04/22 10:36:20;;;;;;;12.37;8.63;;;;;;;-145.18;100.00;46652.59;4996822;28;20042;-69
2023/04/22 10:38:51;;;;;;;12.50;8.13;;;;;;;-145.18;100.00;46658.44;4987954;28;20034;-69
2023/04/22 10:41:22;;;;;;;10.50;8.50;;;;;;;-145.18;100.00;46668.22;5006351;28;20089;-70
2023/04/22 10:43:57;;;;;;;11.77;8.83;;;;;;;-145.18;100.00;46656.50;5009806;28;20510;-69
2023/04/22 10:46:31;;;;;;;11.63;8.13;;;;;;;-145.18;100.00;46654.53;4998415;28;20117;-69
2023/04/22 10:48:58;;;;;;;12.13;8.70;;;;;;;-145.18;100.00;46676.03;5000070;28;20505;-69
2023/04/22 10:51:46;;;;;;;10.13;8.10;;;;;;;-145.18;100.00;46699.47;4998818;28;20042;-69
2023/04/22 10:54:24;;;;;;;11.87;8.33;;;;;;;-145.18;100.00;46697.50;4999300;28;20038;-69
2023/04/22 10:57:21;;;;;;;11.63;8.50;;;;;;;-145.18;100.00;46695.56;4997485;28;20030;-69